Bunola, PA (15020)

07:22 EDT le 28 août 2014 (GMT -0400)
Sugar Run Road | Change Station
CLOSE
Current Station
Stations météorologiques personnelles
Location: Venetia, PA
Altitude: 1096 ft
Stations météo à proximité

Alt. 1096 ft 40.23 °N, 80.04 °W | Updated 2 minutes ago

Partiellement nuageux
Partiellement nuageux
58.2 ° F
Paraît 58.2 ° F
N
0.0
Vent Variable Vent de Est
Gusts 0.0 mph

Aujourd'hui
Haut(e) -- | Bas -- ° F
--% Risque de précip.
Hier
Haut(e) -- | Bas -- ° F
Precip. -- pouce
6:43 AM 7:57 PM
Lune montante, 7% visible
Pression 30.09 pouce
Visibilité 10.0 Miles terrestres
Nuages Ciel dégagé
Point de rosée 54 ° F
Humidité 86%
Précipitations 0.00 pouce
Profondeur de la couche neigeuse Non disponible.
UV 0 sur 12
Pollen 10.00 sur 12
Ozone Bon
PM2.5 Bon
Flu Activity Non disponible.
METAR KAGC 281053Z AUTO 34003KT 10SM CLR 14/13 A3009 RMK AO2 SLP188 T01440128 TSNO

More Conditions Fewer Conditions

Pression 30.09 pouce
Visibilité 10.0 Miles terrestres
Nuages Ciel dégagé
Point de rosée 54 ° F
Humidité 86%
Précipitations 0.00 pouce
Profondeur de la couche neigeuse Non disponible.
UV 0 sur 12
Pollen 10.00 sur 12
Ozone Bon
PM2.5 Bon
Flu Activity Non disponible.
METAR KAGC 281053Z AUTO 34003KT 10SM CLR 14/13 A3009 RMK AO2 SLP188 T01440128 TSNO

More Conditions Fewer Conditions

10-Day Weather Forecast

Almanac

Astronomie

Aug. 28, 2014 Lever Coucher
Temps réel 06:43 EDT 19:57 EDT
Crépuscule civil 06:15 EDT 20:25 EDT
Crépuscule nautique 05:41 EDT 20:59 EDT
Crépuscule astronomique 05:06 EDT 21:34 EDT
Lune 09:34 EDT 21:20 EDT
Durée de lumière visible 14h 10m
Longueur du jour
13h 14m
Tomorrow will be 2m 31s shorter.
Lune montante, 7% of the Moon is Illuminated
Aujourd'hui
Lune montante
Sep 2
Premier quartier
Sep 8
Pleine lune
Sep 15
Dernier quartier
Sep 24
Nouveau

Extrêmes aujourd'hui

State Highs State Lows

Community

WunderPhotos

Upload Photos

1,747,923 Photos téléchargées !

Nearby

Qualité de l'air

  Qualité de l'air Indice de la qualité de l'air Polluant
Hier Moyen
PM2.5
Hier Bon
OZONE
Actuel Bon
PM2.5
Actuel Bon
OZONE
jeudi Bon
PM2.5
jeudi Bon
OZONE
vendredi Bon
PM2.5
vendredi Bon
OZONE

Épaisseur de neige

Station Depth Altitude
Pas de nouvelles chutes de neige

Activité sismique

Ville Distance Mag. Time & Date
No recent earthquake activity has been reported nearby.
Minimum magnitude displayed is 2.5.

Températures des eaux côtières

Lieu Température
Aucun rapport de station

Stations météo à proximité